sensor_id;sensor_type;location;lat;lon;timestamp;noise_LAeq;noise_LA_min;noise_LA_max;noise_LA01;noise_LA95
84588;Laerm;74812;47.466;8.992;2024-03-07T00:00:34;35.10;5.00;42.35;;
84588;Laerm;74812;47.466;8.992;2024-03-07T00:02:59;34.71;5.00;44.15;;
84588;Laerm;74812;47.466;8.992;2024-03-07T00:05:25;36.86;5.00;67.18;;
84588;Laerm;74812;47.466;8.992;2024-03-07T00:07:51;37.25;23.90;53.86;;
84588;Laerm;74812;47.466;8.992;2024-03-07T00:10:16;39.73;5.00;69.54;;
84588;Laerm;74812;47.466;8.992;2024-03-07T00:12:42;36.51;5.00;59.54;;
84588;Laerm;74812;47.466;8.992;2024-03-07T00:15:08;34.38;5.00;39.21;;
84588;Laerm;74812;47.466;8.992;2024-03-07T00:17:36;34.67;5.00;45.23;;
84588;Laerm;74812;47.466;8.992;2024-03-07T00:20:02;34.50;5.00;41.96;;
84588;Laerm;74812;47.466;8.992;2024-03-07T00:22:29;36.67;5.00;55.37;;
84588;Laerm;74812;47.466;8.992;2024-03-07T00:24:55;37.52;5.00;54.09;;
84588;Laerm;74812;47.466;8.992;2024-03-07T00:27:20;34.71;5.00;44.62;;
84588;Laerm;74812;47.466;8.992;2024-03-07T00:29:46;34.37;5.00;42.47;;
84588;Laerm;74812;47.466;8.992;2024-03-07T00:32:21;35.50;5.00;45.89;;
84588;Laerm;74812;47.466;8.992;2024-03-07T00:34:47;35.15;23.90;46.13;;
84588;Laerm;74812;47.466;8.992;2024-03-07T00:37:13;35.14;5.00;41.75;;
84588;Laerm;74812;47.466;8.992;2024-03-07T00:39:38;36.94;5.00;67.70;;
84588;Laerm;74812;47.466;8.992;2024-03-07T00:42:04;35.66;5.00;44.23;;
84588;Laerm;74812;47.466;8.992;2024-03-07T00:44:29;38.64;23.90;70.93;;
84588;Laerm;74812;47.466;8.992;2024-03-07T00:46:54;36.36;23.90;44.97;;
84588;Laerm;74812;47.466;8.992;2024-03-07T00:49:20;37.35;5.00;54.64;;
84588;Laerm;74812;47.466;8.992;2024-03-07T00:51:45;34.31;5.00;39.21;;
84588;Laerm;74812;47.466;8.992;2024-03-07T00:54:11;34.71;23.90;45.57;;
84588;Laerm;74812;47.466;8.992;2024-03-07T00:56:38;35.01;5.00;43.86;;
84588;Laerm;74812;47.466;8.992;2024-03-07T00:59:03;35.56;5.00;47.96;;
84588;Laerm;74812;47.466;8.992;2024-03-07T01:01:29;34.71;5.00;43.90;;
84588;Laerm;74812;47.466;8.992;2024-03-07T01:03:54;35.28;5.00;43.54;;
84588;Laerm;74812;47.466;8.992;2024-03-07T01:06:19;35.80;23.90;43.58;;
84588;Laerm;74812;47.466;8.992;2024-03-07T01:08:45;36.44;5.00;45.77;;
84588;Laerm;74812;47.466;8.992;2024-03-07T01:11:10;37.88;5.00;54.85;;
84588;Laerm;74812;47.466;8.992;2024-03-07T01:13:40;36.46;5.00;67.99;;
84588;Laerm;74812;47.466;8.992;2024-03-07T01:16:05;34.43;5.00;38.81;;
84588;Laerm;74812;47.466;8.992;2024-03-07T01:18:31;37.40;5.00;67.25;;
84588;Laerm;74812;47.466;8.992;2024-03-07T01:20:59;34.29;5.00;39.92;;
84588;Laerm;74812;47.466;8.992;2024-03-07T01:23:25;34.32;5.00;39.21;;
84588;Laerm;74812;47.466;8.992;2024-03-07T01:25:50;34.45;5.00;39.21;;
84588;Laerm;74812;47.466;8.992;2024-03-07T01:28:15;34.48;5.00;39.34;;
84588;Laerm;74812;47.466;8.992;2024-03-07T01:30:42;34.71;5.00;45.42;;
84588;Laerm;74812;47.466;8.992;2024-03-07T01:33:07;34.49;5.00;41.38;;
84588;Laerm;74812;47.466;8.992;2024-03-07T01:35:33;34.40;5.00;39.68;;
84588;Laerm;74812;47.466;8.992;2024-03-07T01:37:58;34.41;5.00;39.08;;
84588;Laerm;74812;47.466;8.992;2024-03-07T01:40:23;34.31;5.00;43.68;;
84588;Laerm;74812;47.466;8.992;2024-03-07T01:42:52;34.43;5.00;39.21;;
84588;Laerm;74812;47.466;8.992;2024-03-07T01:45:17;34.57;23.90;43.14;;
84588;Laerm;74812;47.466;8.992;2024-03-07T01:47:43;36.72;5.00;67.12;;
84588;Laerm;74812;47.466;8.992;2024-03-07T01:50:09;35.02;5.00;40.23;;
84588;Laerm;74812;47.466;8.992;2024-03-07T01:52:34;37.71;23.90;70.60;;
84588;Laerm;74812;47.466;8.992;2024-03-07T01:55:00;34.60;5.00;39.34;;
84588;Laerm;74812;47.466;8.992;2024-03-07T01:57:28;36.93;5.00;53.06;;
84588;Laerm;74812;47.466;8.992;2024-03-07T01:59:53;35.60;5.00;47.63;;
84588;Laerm;74812;47.466;8.992;2024-03-07T02:02:19;36.15;5.00;52.21;;
84588;Laerm;74812;47.466;8.992;2024-03-07T02:04:45;37.31;23.90;55.08;;
84588;Laerm;74812;47.466;8.992;2024-03-07T02:07:10;35.47;5.00;45.57;;
84588;Laerm;74812;47.466;8.992;2024-03-07T02:09:38;35.82;5.00;49.46;;
84588;Laerm;74812;47.466;8.992;2024-03-07T02:12:04;36.50;5.00;55.97;;
84588;Laerm;74812;47.466;8.992;2024-03-07T02:14:29;36.65;5.00;55.76;;
84588;Laerm;74812;47.466;8.992;2024-03-07T02:16:55;37.11;5.00;53.07;;
84588;Laerm;74812;47.466;8.992;2024-03-07T02:19:21;35.87;5.00;51.09;;
84588;Laerm;74812;47.466;8.992;2024-03-07T02:21:47;38.74;5.00;65.46;;
84588;Laerm;74812;47.466;8.992;2024-03-07T02:24:12;36.22;5.00;53.38;;
84588;Laerm;74812;47.466;8.992;2024-03-07T02:26:37;39.53;5.00;69.69;;
84588;Laerm;74812;47.466;8.992;2024-03-07T02:29:04;37.53;5.00;57.42;;
84588;Laerm;74812;47.466;8.992;2024-03-07T02:31:30;37.29;5.00;50.76;;
84588;Laerm;74812;47.466;8.992;2024-03-07T02:34:02;35.57;5.00;42.88;;
84588;Laerm;74812;47.466;8.992;2024-03-07T02:36:27;35.57;5.00;42.03;;
84588;Laerm;74812;47.466;8.992;2024-03-07T02:38:53;35.75;23.90;42.16;;
84588;Laerm;74812;47.466;8.992;2024-03-07T02:41:19;36.27;23.90;52.70;;
84588;Laerm;74812;47.466;8.992;2024-03-07T02:43:44;35.34;23.90;39.92;;
84588;Laerm;74812;47.466;8.992;2024-03-07T02:46:09;34.74;5.00;39.46;;
84588;Laerm;74812;47.466;8.992;2024-03-07T02:48:37;34.88;5.00;40.98;;
84588;Laerm;74812;47.466;8.992;2024-03-07T02:51:02;34.83;5.00;39.70;;
84588;Laerm;74812;47.466;8.992;2024-03-07T02:53:27;35.04;5.00;48.02;;
84588;Laerm;74812;47.466;8.992;2024-03-07T02:55:53;37.47;5.00;68.31;;
84588;Laerm;74812;47.466;8.992;2024-03-07T02:58:19;37.97;5.00;54.87;;
84588;Laerm;74812;47.466;8.992;2024-03-07T03:00:44;37.56;23.90;70.14;;
84588;Laerm;74812;47.466;8.992;2024-03-07T03:03:10;34.84;23.55;44.15;;
84588;Laerm;74812;47.466;8.992;2024-03-07T03:08:10;34.58;5.00;41.89;;
84588;Laerm;74812;47.466;8.992;2024-03-07T03:10:36;34.73;5.00;43.39;;
84588;Laerm;74812;47.466;8.992;2024-03-07T03:13:01;34.71;5.00;44.54;;
84588;Laerm;74812;47.466;8.992;2024-03-07T03:15:27;34.55;5.00;38.81;;
84588;Laerm;74812;47.466;8.992;2024-03-07T03:17:52;34.82;23.55;45.80;;
84588;Laerm;74812;47.466;8.992;2024-03-07T03:20:18;34.57;5.00;39.92;;
84588;Laerm;74812;47.466;8.992;2024-03-07T03:22:59;35.77;5.00;48.08;;
84588;Laerm;74812;47.466;8.992;2024-03-07T03:25:24;36.09;5.00;54.31;;
84588;Laerm;74812;47.466;8.992;2024-03-07T03:27:50;36.34;5.00;53.75;;
84588;Laerm;74812;47.466;8.992;2024-03-07T03:30:15;37.87;23.55;65.88;;
84588;Laerm;74812;47.466;8.992;2024-03-07T03:32:44;36.78;23.90;44.73;;
84588;Laerm;74812;47.466;8.992;2024-03-07T03:35:10;37.53;5.00;70.43;;
84588;Laerm;74812;47.466;8.992;2024-03-07T03:37:44;35.67;5.00;44.27;;
84588;Laerm;74812;47.466;8.992;2024-03-07T03:40:10;34.78;5.00;39.58;;
84588;Laerm;74812;47.466;8.992;2024-03-07T03:42:39;36.26;23.90;42.09;;
84588;Laerm;74812;47.466;8.992;2024-03-07T03:45:05;35.83;23.90;42.36;;
84588;Laerm;74812;47.466;8.992;2024-03-07T03:47:37;34.91;5.00;50.59;;
84588;Laerm;74812;47.466;8.992;2024-03-07T03:50:06;34.66;5.00;42.59;;
84588;Laerm;74812;47.466;8.992;2024-03-07T03:52:32;34.70;23.90;41.22;;
84588;Laerm;74812;47.466;8.992;2024-03-07T03:54:58;37.97;5.00;54.02;;
84588;Laerm;74812;47.466;8.992;2024-03-07T03:57:24;35.46;5.00;44.73;;
84588;Laerm;74812;47.466;8.992;2024-03-07T03:59:49;35.64;5.00;43.86;;
84588;Laerm;74812;47.466;8.992;2024-03-07T04:02:15;35.57;5.00;42.98;;
84588;Laerm;74812;47.466;8.992;2024-03-07T04:04:42;37.95;5.00;65.29;;
84588;Laerm;74812;47.466;8.992;2024-03-07T04:07:07;35.51;26.56;45.63;;
84588;Laerm;74812;47.466;8.992;2024-03-07T04:09:32;38.53;23.90;70.51;;
84588;Laerm;74812;47.466;8.992;2024-03-07T04:11:58;35.50;23.90;44.43;;
84588;Laerm;74812;47.466;8.992;2024-03-07T04:14:24;37.11;5.00;48.10;;
84588;Laerm;74812;47.466;8.992;2024-03-07T04:16:50;36.00;26.91;44.83;;
84588;Laerm;74812;47.466;8.992;2024-03-07T04:19:15;38.66;23.90;58.30;;
84588;Laerm;74812;47.466;8.992;2024-03-07T04:21:42;35.33;23.90;43.90;;
84588;Laerm;74812;47.466;8.992;2024-03-07T04:24:08;36.55;5.00;50.98;;
84588;Laerm;74812;47.466;8.992;2024-03-07T04:26:34;35.75;23.90;43.29;;
84588;Laerm;74812;47.466;8.992;2024-03-07T04:28:59;35.52;23.90;40.89;;
84588;Laerm;74812;47.466;8.992;2024-03-07T04:31:24;35.73;23.90;43.04;;
84588;Laerm;74812;47.466;8.992;2024-03-07T04:33:50;36.48;23.90;51.24;;
84588;Laerm;74812;47.466;8.992;2024-03-07T04:36:16;35.96;5.00;48.61;;
84588;Laerm;74812;47.466;8.992;2024-03-07T04:38:41;36.47;5.00;52.85;;
84588;Laerm;74812;47.466;8.992;2024-03-07T04:41:13;36.54;5.00;67.30;;
84588;Laerm;74812;47.466;8.992;2024-03-07T04:43:40;35.22;5.00;41.53;;
84588;Laerm;74812;47.466;8.992;2024-03-07T04:46:05;37.91;5.00;69.77;;
84588;Laerm;74812;47.466;8.992;2024-03-07T04:48:31;35.28;5.00;41.46;;
84588;Laerm;74812;47.466;8.992;2024-03-07T04:50:57;35.08;23.90;44.90;;
84588;Laerm;74812;47.466;8.992;2024-03-07T04:53:23;35.11;5.00;45.36;;
84588;Laerm;74812;47.466;8.992;2024-03-07T04:55:48;36.43;5.00;43.77;;
84588;Laerm;74812;47.466;8.992;2024-03-07T04:58:14;35.71;5.00;48.18;;
84588;Laerm;74812;47.466;8.992;2024-03-07T05:00:39;35.84;23.90;42.98;;
84588;Laerm;74812;47.466;8.992;2024-03-07T05:03:04;38.31;26.91;57.42;;
84588;Laerm;74812;47.466;8.992;2024-03-07T05:05:29;35.80;26.91;45.75;;
84588;Laerm;74812;47.466;8.992;2024-03-07T05:07:55;36.90;23.90;45.11;;
84588;Laerm;74812;47.466;8.992;2024-03-07T05:10:23;36.74;26.91;55.08;;
84588;Laerm;74812;47.466;8.992;2024-03-07T05:12:49;36.25;23.90;49.87;;
84588;Laerm;74812;47.466;8.992;2024-03-07T05:15:14;38.97;26.91;58.14;;
84588;Laerm;74812;47.466;8.992;2024-03-07T05:17:40;49.04;23.90;80.79;;
84588;Laerm;74812;47.466;8.992;2024-03-07T05:20:08;35.85;23.90;40.71;;
84588;Laerm;74812;47.466;8.992;2024-03-07T05:22:38;38.79;26.91;68.77;;
84588;Laerm;74812;47.466;8.992;2024-03-07T05:25:06;36.53;5.00;44.73;;
84588;Laerm;74812;47.466;8.992;2024-03-07T05:27:31;35.82;23.90;45.20;;
84588;Laerm;74812;47.466;8.992;2024-03-07T05:29:56;35.86;26.91;43.29;;
84588;Laerm;74812;47.466;8.992;2024-03-07T05:34:48;35.95;26.91;40.13;;
84588;Laerm;74812;47.466;8.992;2024-03-07T05:37:13;36.08;26.91;43.86;;
84588;Laerm;74812;47.466;8.992;2024-03-07T05:39:39;35.93;26.56;41.46;;
84588;Laerm;74812;47.466;8.992;2024-03-07T05:42:04;36.14;26.91;41.53;;
84588;Laerm;74812;47.466;8.992;2024-03-07T05:44:29;37.04;26.56;55.44;;
84588;Laerm;74812;47.466;8.992;2024-03-07T05:46:55;37.83;26.91;44.62;;
84588;Laerm;74812;47.466;8.992;2024-03-07T05:49:20;36.26;23.90;44.56;;
84588;Laerm;74812;47.466;8.992;2024-03-07T05:51:46;38.00;23.90;67.06;;
84588;Laerm;74812;47.466;8.992;2024-03-07T05:54:12;36.68;23.90;41.30;;
84588;Laerm;74812;47.466;8.992;2024-03-07T05:56:38;39.25;28.67;70.06;;
84588;Laerm;74812;47.466;8.992;2024-03-07T05:59:04;36.18;26.91;41.75;;
84588;Laerm;74812;47.466;8.992;2024-03-07T06:01:33;37.34;26.91;44.73;;
84588;Laerm;74812;47.466;8.992;2024-03-07T06:04:02;38.82;28.67;44.62;;
84588;Laerm;74812;47.466;8.992;2024-03-07T06:06:28;39.06;26.91;57.35;;
84588;Laerm;74812;47.466;8.992;2024-03-07T06:08:56;37.12;26.91;42.88;;
84588;Laerm;74812;47.466;8.992;2024-03-07T06:11:22;37.37;23.90;42.88;;
84588;Laerm;74812;47.466;8.992;2024-03-07T06:13:48;36.86;26.91;43.54;;
84588;Laerm;74812;47.466;8.992;2024-03-07T06:16:13;36.42;28.67;41.89;;
84588;Laerm;74812;47.466;8.992;2024-03-07T06:18:42;36.23;26.56;40.89;;
84588;Laerm;74812;47.466;8.992;2024-03-07T06:21:07;36.57;26.91;45.17;;
84588;Laerm;74812;47.466;8.992;2024-03-07T06:23:33;38.07;23.90;66.79;;
84588;Laerm;74812;47.466;8.992;2024-03-07T06:25:58;37.12;26.91;44.07;;
84588;Laerm;74812;47.466;8.992;2024-03-07T06:28:24;38.46;5.00;69.03;;
84588;Laerm;74812;47.466;8.992;2024-03-07T06:30:50;37.62;26.91;44.69;;
84588;Laerm;74812;47.466;8.992;2024-03-07T06:33:15;36.28;26.91;41.82;;
84588;Laerm;74812;47.466;8.992;2024-03-07T06:35:43;37.53;28.32;49.14;;
84588;Laerm;74812;47.466;8.992;2024-03-07T06:38:09;36.60;5.00;46.73;;
84588;Laerm;74812;47.466;8.992;2024-03-07T06:40:35;38.99;28.32;56.34;;
84588;Laerm;74812;47.466;8.992;2024-03-07T06:43:01;40.39;28.67;62.36;;
84588;Laerm;74812;47.466;8.992;2024-03-07T06:45:29;36.93;29.57;40.80;;
84588;Laerm;74812;47.466;8.992;2024-03-07T06:47:54;37.71;28.67;43.19;;
84588;Laerm;74812;47.466;8.992;2024-03-07T06:50:20;36.95;26.91;40.98;;
84588;Laerm;74812;47.466;8.992;2024-03-07T06:52:45;36.50;26.91;41.46;;
84588;Laerm;74812;47.466;8.992;2024-03-07T06:55:13;38.95;28.67;67.51;;
84588;Laerm;74812;47.466;8.992;2024-03-07T06:57:40;41.45;23.90;72.87;;
84588;Laerm;74812;47.466;8.992;2024-03-07T07:00:05;50.00;28.67;81.07;;
84588;Laerm;74812;47.466;8.992;2024-03-07T07:02:37;36.15;23.90;44.87;;
84588;Laerm;74812;47.466;8.992;2024-03-07T07:05:02;36.18;26.91;40.23;;
84588;Laerm;74812;47.466;8.992;2024-03-07T07:07:32;44.20;23.90;68.24;;
84588;Laerm;74812;47.466;8.992;2024-03-07T07:09:57;36.58;26.91;51.33;;
84588;Laerm;74812;47.466;8.992;2024-03-07T07:12:23;39.38;29.92;60.98;;
84588;Laerm;74812;47.466;8.992;2024-03-07T07:14:48;38.51;23.90;62.55;;
84588;Laerm;74812;47.466;8.992;2024-03-07T07:17:14;36.39;23.90;48.46;;
84588;Laerm;74812;47.466;8.992;2024-03-07T07:19:39;36.53;5.00;49.84;;
84588;Laerm;74812;47.466;8.992;2024-03-07T07:22:05;36.66;23.55;46.78;;
84588;Laerm;74812;47.466;8.992;2024-03-07T07:24:31;38.13;26.91;62.55;;
84588;Laerm;74812;47.466;8.992;2024-03-07T07:26:59;36.60;26.91;46.78;;
84588;Laerm;74812;47.466;8.992;2024-03-07T07:29:25;38.34;5.00;68.42;;
84588;Laerm;74812;47.466;8.992;2024-03-07T07:31:51;36.57;23.90;50.82;;
84588;Laerm;74812;47.466;8.992;2024-03-07T07:34:17;38.01;23.90;69.38;;
84588;Laerm;74812;47.466;8.992;2024-03-07T07:36:42;37.16;23.90;45.39;;
84588;Laerm;74812;47.466;8.992;2024-03-07T07:39:07;35.79;23.90;44.03;;
84588;Laerm;74812;47.466;8.992;2024-03-07T07:41:42;39.88;26.91;60.75;;
84588;Laerm;74812;47.466;8.992;2024-03-07T07:44:07;36.62;23.90;45.17;;
84588;Laerm;74812;47.466;8.992;2024-03-07T07:46:33;37.03;5.00;54.54;;
84588;Laerm;74812;47.466;8.992;2024-03-07T07:48:59;37.50;26.91;54.00;;
84588;Laerm;74812;47.466;8.992;2024-03-07T07:51:25;37.43;23.90;51.30;;
84588;Laerm;74812;47.466;8.992;2024-03-07T07:53:51;38.81;26.91;54.82;;
84588;Laerm;74812;47.466;8.992;2024-03-07T07:56:19;36.93;26.91;50.02;;
84588;Laerm;74812;47.466;8.992;2024-03-07T07:58:44;39.53;23.90;65.36;;
84588;Laerm;74812;47.466;8.992;2024-03-07T08:01:10;36.24;23.90;41.53;;
84588;Laerm;74812;47.466;8.992;2024-03-07T08:03:35;37.05;23.90;55.78;;
84588;Laerm;74812;47.466;8.992;2024-03-07T08:06:01;45.26;26.91;69.42;;
84588;Laerm;74812;47.466;8.992;2024-03-07T08:08:27;47.88;30.89;77.92;;
84588;Laerm;74812;47.466;8.992;2024-03-07T08:10:53;42.99;26.91;69.03;;
84588;Laerm;74812;47.466;8.992;2024-03-07T08:13:18;46.03;30.89;72.73;;
84588;Laerm;74812;47.466;8.992;2024-03-07T08:15:43;40.61;32.35;55.96;;
84588;Laerm;74812;47.466;8.992;2024-03-07T08:18:09;43.14;28.67;66.67;;
84588;Laerm;74812;47.466;8.992;2024-03-07T08:20:34;40.61;32.35;55.48;;
84588;Laerm;74812;47.466;8.992;2024-03-07T08:22:59;40.37;28.67;52.51;;
84588;Laerm;74812;47.466;8.992;2024-03-07T08:25:25;41.15;31.68;60.61;;
84588;Laerm;74812;47.466;8.992;2024-03-07T08:27:52;41.82;33.90;58.41;;
84588;Laerm;74812;47.466;8.992;2024-03-07T08:30:17;41.04;31.68;59.24;;
84588;Laerm;74812;47.466;8.992;2024-03-07T08:32:47;40.01;30.89;53.87;;
84588;Laerm;74812;47.466;8.992;2024-03-07T08:35:12;41.39;32.35;62.50;;
84588;Laerm;74812;47.466;8.992;2024-03-07T08:37:38;44.52;32.35;69.04;;
84588;Laerm;74812;47.466;8.992;2024-03-07T08:40:04;46.46;30.89;72.03;;
84588;Laerm;74812;47.466;8.992;2024-03-07T08:42:30;40.54;29.92;69.17;;
84588;Laerm;74812;47.466;8.992;2024-03-07T08:44:57;44.99;26.91;70.09;;
84588;Laerm;74812;47.466;8.992;2024-03-07T08:47:23;51.03;30.89;75.91;;
84588;Laerm;74812;47.466;8.992;2024-03-07T08:49:48;44.28;29.92;67.28;;
84588;Laerm;74812;47.466;8.992;2024-03-07T08:52:14;45.10;28.67;69.27;;
84588;Laerm;74812;47.466;8.992;2024-03-07T08:54:39;40.43;29.92;57.59;;
84588;Laerm;74812;47.466;8.992;2024-03-07T08:57:04;39.52;30.89;55.30;;
84588;Laerm;74812;47.466;8.992;2024-03-07T08:59:32;44.33;30.89;64.76;;
84588;Laerm;74812;47.466;8.992;2024-03-07T09:01:58;40.54;29.92;58.76;;
84588;Laerm;74812;47.466;8.992;2024-03-07T09:04:27;43.23;30.89;68.02;;
84588;Laerm;74812;47.466;8.992;2024-03-07T09:06:52;44.81;29.92;63.79;;
84588;Laerm;74812;47.466;8.992;2024-03-07T09:09:17;51.35;31.68;81.42;;
84588;Laerm;74812;47.466;8.992;2024-03-07T09:11:44;38.57;28.67;55.20;;
84588;Laerm;74812;47.466;8.992;2024-03-07T09:14:09;46.88;28.67;74.47;;
84588;Laerm;74812;47.466;8.992;2024-03-07T09:16:35;39.06;26.91;69.14;;
84588;Laerm;74812;47.466;8.992;2024-03-07T09:19:01;36.56;28.67;47.14;;
84588;Laerm;74812;47.466;8.992;2024-03-07T09:21:26;39.68;28.67;69.76;;
84588;Laerm;74812;47.466;8.992;2024-03-07T09:23:52;39.26;26.91;58.34;;
84588;Laerm;74812;47.466;8.992;2024-03-07T09:26:17;50.36;31.68;80.74;;
84588;Laerm;74812;47.466;8.992;2024-03-07T09:28:43;39.95;29.92;57.44;;
84588;Laerm;74812;47.466;8.992;2024-03-07T09:31:08;39.04;23.90;56.16;;
84588;Laerm;74812;47.466;8.992;2024-03-07T09:33:33;38.24;23.90;54.75;;
84588;Laerm;74812;47.466;8.992;2024-03-07T09:35:59;38.53;28.67;52.20;;
84588;Laerm;74812;47.466;8.992;2024-03-07T09:38:24;37.03;28.67;42.53;;
84588;Laerm;74812;47.466;8.992;2024-03-07T09:40:50;37.51;29.92;49.75;;
84588;Laerm;74812;47.466;8.992;2024-03-07T09:43:15;37.12;28.67;45.80;;
84588;Laerm;74812;47.466;8.992;2024-03-07T09:45:42;38.28;26.91;46.28;;
84588;Laerm;74812;47.466;8.992;2024-03-07T09:48:08;40.08;26.91;61.79;;
84588;Laerm;74812;47.466;8.992;2024-03-07T09:50:34;53.73;23.90;76.75;;
84588;Laerm;74812;47.466;8.992;2024-03-07T09:53:00;42.31;26.91;69.24;;
84588;Laerm;74812;47.466;8.992;2024-03-07T09:55:27;55.10;30.89;80.22;;
84588;Laerm;74812;47.466;8.992;2024-03-07T09:57:53;56.38;29.92;81.74;;
84588;Laerm;74812;47.466;8.992;2024-03-07T10:00:20;42.80;28.67;62.63;;
84588;Laerm;74812;47.466;8.992;2024-03-07T10:02:57;37.64;26.91;42.53;;
84588;Laerm;74812;47.466;8.992;2024-03-07T10:05:23;38.14;29.92;44.54;;
84588;Laerm;74812;47.466;8.992;2024-03-07T10:07:51;37.19;28.67;42.03;;
84588;Laerm;74812;47.466;8.992;2024-03-07T10:10:18;37.03;28.67;41.89;;
84588;Laerm;74812;47.466;8.992;2024-03-07T10:12:43;37.16;29.92;44.23;;
84588;Laerm;74812;47.466;8.992;2024-03-07T10:15:08;36.68;29.92;41.46;;
84588;Laerm;74812;47.466;8.992;2024-03-07T10:17:38;36.90;28.67;42.88;;
84588;Laerm;74812;47.466;8.992;2024-03-07T10:20:05;39.59;28.32;44.52;;
84588;Laerm;74812;47.466;8.992;2024-03-07T10:22:35;44.73;29.92;64.45;;
84588;Laerm;74812;47.466;8.992;2024-03-07T10:25:01;51.53;31.68;82.66;;
84588;Laerm;74812;47.466;8.992;2024-03-07T10:27:28;47.96;31.68;74.99;;
84588;Laerm;74812;47.466;8.992;2024-03-07T10:29:53;50.75;32.93;61.00;;
84588;Laerm;74812;47.466;8.992;2024-03-07T10:32:22;50.85;32.58;62.93;;
84588;Laerm;74812;47.466;8.992;2024-03-07T10:34:51;49.49;34.69;68.82;;
84588;Laerm;74812;47.466;8.992;2024-03-07T10:37:17;51.06;42.03;62.33;;
84588;Laerm;74812;47.466;8.992;2024-03-07T10:39:43;42.97;33.44;67.77;;
84588;Laerm;74812;47.466;8.992;2024-03-07T10:42:09;44.13;32.93;67.75;;
84588;Laerm;74812;47.466;8.992;2024-03-07T10:44:37;38.14;29.92;50.48;;
84588;Laerm;74812;47.466;8.992;2024-03-07T10:47:06;43.59;32.93;67.14;;
84588;Laerm;74812;47.466;8.992;2024-03-07T10:49:33;42.20;32.35;56.72;;
84588;Laerm;74812;47.466;8.992;2024-03-07T10:52:02;44.26;33.44;63.59;;
84588;Laerm;74812;47.466;8.992;2024-03-07T10:59:25;48.38;31.68;78.76;;
84588;Laerm;74812;47.466;8.992;2024-03-07T11:02:13;38.27;32.35;52.13;;
84588;Laerm;74812;47.466;8.992;2024-03-07T11:04:41;37.36;31.33;43.49;;
84588;Laerm;74812;47.466;8.992;2024-03-07T11:07:06;39.32;31.68;69.14;;
84588;Laerm;74812;47.466;8.992;2024-03-07T11:09:31;37.66;31.68;50.55;;
84588;Laerm;74812;47.466;8.992;2024-03-07T11:11:59;40.83;31.68;69.89;;
84588;Laerm;74812;47.466;8.992;2024-03-07T11:14:25;39.93;29.92;59.70;;
84588;Laerm;74812;47.466;8.992;2024-03-07T11:16:51;41.34;32.35;60.57;;
84588;Laerm;74812;47.466;8.992;2024-03-07T11:19:18;56.36;33.90;89.39;;
84588;Laerm;74812;47.466;8.992;2024-03-07T11:21:44;42.47;31.68;72.45;;
84588;Laerm;74812;47.466;8.992;2024-03-07T11:24:09;37.79;30.89;52.21;;
84588;Laerm;74812;47.466;8.992;2024-03-07T11:26:35;44.03;28.67;67.95;;
84588;Laerm;74812;47.466;8.992;2024-03-07T11:29:00;42.47;29.92;59.49;;
84588;Laerm;74812;47.466;8.992;2024-03-07T11:31:26;38.37;31.68;52.09;;
84588;Laerm;74812;47.466;8.992;2024-03-07T11:36:42;40.35;31.68;57.49;;
84588;Laerm;74812;47.466;8.992;2024-03-07T11:39:30;40.47;31.68;60.57;;
84588;Laerm;74812;47.466;8.992;2024-03-07T11:41:56;41.69;29.92;67.26;;
84588;Laerm;74812;47.466;8.992;2024-03-07T11:44:21;44.16;29.92;69.09;;
84588;Laerm;74812;47.466;8.992;2024-03-07T11:46:47;40.87;30.89;64.43;;
84588;Laerm;74812;47.466;8.992;2024-03-07T11:49:13;41.33;29.92;64.52;;
84588;Laerm;74812;47.466;8.992;2024-03-07T11:51:39;43.22;29.92;60.88;;
84588;Laerm;74812;47.466;8.992;2024-03-07T11:54:04;45.55;32.35;57.24;;
84588;Laerm;74812;47.466;8.992;2024-03-07T11:56:30;42.37;32.93;61.26;;
84588;Laerm;74812;47.466;8.992;2024-03-07T11:58:56;42.33;30.89;61.62;;
84588;Laerm;74812;47.466;8.992;2024-03-07T12:01:22;55.16;31.68;85.22;;
84588;Laerm;74812;47.466;8.992;2024-03-07T12:03:50;49.98;32.93;82.50;;
84588;Laerm;74812;47.466;8.992;2024-03-07T12:06:17;42.67;32.93;60.81;;
84588;Laerm;74812;47.466;8.992;2024-03-07T12:08:45;41.62;28.67;62.50;;
84588;Laerm;74812;47.466;8.992;2024-03-07T12:11:10;50.58;28.67;69.02;;
84588;Laerm;74812;47.466;8.992;2024-03-07T12:13:41;36.32;26.91;40.71;;
84588;Laerm;74812;47.466;8.992;2024-03-07T12:16:07;38.41;28.67;43.63;;
84588;Laerm;74812;47.466;8.992;2024-03-07T12:18:33;38.51;26.91;67.33;;
84588;Laerm;74812;47.466;8.992;2024-03-07T12:20:59;36.41;26.91;42.22;;
84588;Laerm;74812;47.466;8.992;2024-03-07T12:23:28;38.41;26.91;69.36;;
84588;Laerm;74812;47.466;8.992;2024-03-07T12:26:00;36.30;23.90;42.59;;
84588;Laerm;74812;47.466;8.992;2024-03-07T12:28:26;35.85;23.90;40.03;;
84588;Laerm;74812;47.466;8.992;2024-03-07T12:30:53;36.13;26.91;41.61;;
84588;Laerm;74812;47.466;8.992;2024-03-07T12:33:19;36.28;26.91;40.53;;
84588;Laerm;74812;47.466;8.992;2024-03-07T12:35:48;38.32;26.91;43.94;;
84588;Laerm;74812;47.466;8.992;2024-03-07T12:38:20;37.10;23.90;43.68;;
84588;Laerm;74812;47.466;8.992;2024-03-07T12:41:01;35.60;23.90;40.33;;
84588;Laerm;74812;47.466;8.992;2024-03-07T12:43:31;39.13;28.67;43.77;;
84588;Laerm;74812;47.466;8.992;2024-03-07T12:45:57;36.63;26.91;42.47;;
84588;Laerm;74812;47.466;8.992;2024-03-07T12:48:24;37.09;29.92;45.54;;
84588;Laerm;74812;47.466;8.992;2024-03-07T12:50:50;36.91;26.56;42.88;;
84588;Laerm;74812;47.466;8.992;2024-03-07T12:53:21;38.04;23.90;69.10;;
84588;Laerm;74812;47.466;8.992;2024-03-07T12:55:47;37.11;23.90;41.53;;
84588;Laerm;74812;47.466;8.992;2024-03-07T12:58:12;37.96;26.91;69.20;;
84588;Laerm;74812;47.466;8.992;2024-03-07T13:00:41;36.66;26.91;42.16;;
84588;Laerm;74812;47.466;8.992;2024-03-07T13:03:06;36.09;26.91;41.06;;
84588;Laerm;74812;47.466;8.992;2024-03-07T13:05:32;37.10;26.91;43.63;;
84588;Laerm;74812;47.466;8.992;2024-03-07T13:07:57;35.80;23.90;40.23;;
84588;Laerm;74812;47.466;8.992;2024-03-07T13:10:22;36.15;23.90;42.22;;
84588;Laerm;74812;47.466;8.992;2024-03-07T13:12:49;36.28;26.91;42.59;;
84588;Laerm;74812;47.466;8.992;2024-03-07T13:15:14;36.47;23.90;42.98;;
84588;Laerm;74812;47.466;8.992;2024-03-07T13:17:40;35.69;23.90;44.97;;
84588;Laerm;74812;47.466;8.992;2024-03-07T13:20:08;36.47;26.56;41.89;;
84588;Laerm;74812;47.466;8.992;2024-03-07T13:22:43;35.89;23.90;39.81;;
84588;Laerm;74812;47.466;8.992;2024-03-07T13:25:24;35.72;23.90;39.46;;
84588;Laerm;74812;47.466;8.992;2024-03-07T13:27:57;37.43;23.90;68.09;;
84588;Laerm;74812;47.466;8.992;2024-03-07T13:30:24;36.04;26.91;41.82;;
84588;Laerm;74812;47.466;8.992;2024-03-07T13:32:56;38.65;26.91;69.82;;
84588;Laerm;74812;47.466;8.992;2024-03-07T13:35:22;37.01;28.67;44.11;;
84588;Laerm;74812;47.466;8.992;2024-03-07T13:37:48;36.26;28.67;40.45;;
84588;Laerm;74812;47.466;8.992;2024-03-07T13:40:14;36.09;26.91;39.81;;
84588;Laerm;74812;47.466;8.992;2024-03-07T13:42:49;36.14;23.90;39.70;;
84588;Laerm;74812;47.466;8.992;2024-03-07T13:45:17;35.64;26.56;39.81;;
84588;Laerm;74812;47.466;8.992;2024-03-07T13:47:43;36.35;23.90;44.76;;
84588;Laerm;74812;47.466;8.992;2024-03-07T13:50:09;36.31;23.90;41.61;;
84588;Laerm;74812;47.466;8.992;2024-03-07T13:52:37;36.50;5.00;41.53;;
84588;Laerm;74812;47.466;8.992;2024-03-07T13:55:09;46.07;26.91;60.92;;